Time;durP1;ratioP1;P1;durP2;ratioP2;P2;SDS_P1;SDS_P2;PMS_P1;PMS_P2;Temp;Humidity;BMP_temperature;BMP_pressure;BME280_temperature;BME280_humidity;BME280_pressure;Samples;Min_cycle;Max_cycle;Signal;HPM_P1;HPM_P2
2022/03/23 00:02:03;;;;;;;39.35;27.13;;;;;;;;;;5072384;28;20040;-26
2022/03/23 00:04:31;;;;;;;39.38;27.75;;;;;;;;;;5072437;28;20053;-27
2022/03/23 00:06:59;;;;;;;46.10;28.67;;;;;;;;;;5072356;28;20036;-27
2022/03/23 00:09:26;;;;;;;40.60;27.80;;;;;;;;;;5072269;28;20490;-27
2022/03/23 00:11:52;;;;;;;36.60;26.77;;;;;;;;;;5072161;28;20086;-26
2022/03/23 00:14:18;;;;;;;39.83;27.17;;;;;;;;;;5072264;28;20494;-27
2022/03/23 00:16:44;;;;;;;40.10;26.25;;;;;;;;;;5071922;28;20447;-26
2022/03/23 00:19:11;;;;;;;42.03;27.05;;;;;;;;;;5071441;28;20191;-27
2022/03/23 00:21:38;;;;;;;40.05;27.33;;;;;;;;;;5071752;28;20032;-26
2022/03/23 00:24:04;;;;;;;39.70;27.35;;;;;;;;;;5071581;28;20041;-28
2022/03/23 00:26:30;;;;;;;43.75;29.42;;;;;;;;;;5071612;28;20045;-26
2022/03/23 00:28:57;;;;;;;53.97;33.55;;;;;;;;;;5071776;28;20032;-26
2022/03/23 00:31:23;;;;;;;49.67;32.70;;;;;;;;;;5071956;28;20387;-26
2022/03/23 00:33:50;;;;;;;42.95;28.80;;;;;;;;;;5071663;28;20063;-26
2022/03/23 00:36:16;;;;;;;48.08;31.50;;;;;;;;;;5071715;28;20389;-26
2022/03/23 00:38:43;;;;;;;44.10;29.45;;;;;;;;;;5071435;28;20131;-26
2022/03/23 00:41:10;;;;;;;42.78;29.05;;;;;;;;;;5071907;28;20508;-26
2022/03/23 00:43:36;;;;;;;41.42;29.90;;;;;;;;;;5071568;28;20040;-26
2022/03/23 00:46:02;;;;;;;48.35;31.02;;;;;;;;;;5070727;28;20072;-28
2022/03/23 00:48:28;;;;;;;44.38;31.13;;;;;;;;;;5071530;28;20098;-27
2022/03/23 00:50:55;;;;;;;44.53;29.30;;;;;;;;;;5071756;28;20115;-26
2022/03/23 00:53:21;;;;;;;47.40;28.65;;;;;;;;;;5071497;28;20040;-25
2022/03/23 00:55:47;;;;;;;44.67;27.83;;;;;;;;;;5071512;28;20036;-27
2022/03/23 00:58:13;;;;;;;46.85;29.20;;;;;;;;;;5071596;28;20515;-27
2022/03/23 01:00:41;;;;;;;43.20;28.98;;;;;;;;;;5071151;28;20052;-27
2022/03/23 01:03:07;;;;;;;40.63;27.17;;;;;;;;;;5071366;28;20055;-27
2022/03/23 01:05:33;;;;;;;41.33;27.92;;;;;;;;;;5071629;28;20036;-26
2022/03/23 01:07:59;;;;;;;43.05;27.83;;;;;;;;;;5071573;28;20083;-26
2022/03/23 01:10:25;;;;;;;43.15;26.70;;;;;;;;;;5071267;28;20390;-27
2022/03/23 01:12:53;;;;;;;37.20;25.90;;;;;;;;;;5071125;28;20040;-26
2022/03/23 01:15:20;;;;;;;39.70;26.60;;;;;;;;;;5071144;28;20043;-27
2022/03/23 01:17:46;;;;;;;36.83;25.85;;;;;;;;;;5071355;28;20036;-27
2022/03/23 01:20:14;;;;;;;41.55;27.33;;;;;;;;;;5071165;28;20045;-27
2022/03/23 01:22:40;;;;;;;38.38;25.42;;;;;;;;;;5071367;28;20401;-27
2022/03/23 01:25:10;;;;;;;38.85;26.08;;;;;;;;;;5071234;28;20037;-27
2022/03/23 01:27:40;;;;;;;44.90;27.25;;;;;;;;;;5070925;28;20052;-26
2022/03/23 01:30:07;;;;;;;40.33;27.13;;;;;;;;;;5070971;28;20040;-27
2022/03/23 01:32:33;;;;;;;41.70;26.70;;;;;;;;;;5070794;28;20044;-26
2022/03/23 01:35:00;;;;;;;45.95;27.83;;;;;;;;;;5071147;28;20048;-28
2022/03/23 01:37:26;;;;;;;39.03;24.92;;;;;;;;;;5071089;28;20040;-29
2022/03/23 01:39:52;;;;;;;49.47;29.88;;;;;;;;;;5070920;28;20040;-26
2022/03/23 01:42:18;;;;;;;37.95;25.73;;;;;;;;;;5070816;28;20056;-26
2022/03/23 01:44:44;;;;;;;45.55;29.42;;;;;;;;;;5071210;28;20367;-27
2022/03/23 01:47:15;;;;;;;43.70;28.08;;;;;;;;;;5053374;28;20040;-26
2022/03/23 01:49:42;;;;;;;41.35;26.88;;;;;;;;;;5071028;28;20052;-27
2022/03/23 01:52:10;;;;;;;43.15;27.83;;;;;;;;;;5070849;28;20083;-27
2022/03/23 01:54:36;;;;;;;41.92;27.80;;;;;;;;;;5071089;28;20044;-27
2022/03/23 01:57:03;;;;;;;37.40;27.08;;;;;;;;;;5071932;28;20123;-28
2022/03/23 01:59:30;;;;;;;45.97;28.45;;;;;;;;;;5074269;28;20036;-26
2022/03/23 02:01:56;;;;;;;43.15;28.08;;;;;;;;;;5074492;28;20033;-27
2022/03/23 02:04:23;;;;;;;42.35;27.52;;;;;;;;;;5074574;28;20508;-26
2022/03/23 02:06:49;;;;;;;44.88;28.13;;;;;;;;;;5074670;28;20046;-27
2022/03/23 02:09:16;;;;;;;43.55;29.33;;;;;;;;;;5074223;28;20048;-26
2022/03/23 02:11:42;;;;;;;47.38;29.38;;;;;;;;;;5074489;28;20063;-27
2022/03/23 02:14:09;;;;;;;38.55;27.63;;;;;;;;;;5056318;28;20040;-27
2022/03/23 02:16:54;;;;;;;39.10;27.40;;;;;;;;;;5074181;28;20072;-28
2022/03/23 02:19:23;;;;;;;42.65;27.88;;;;;;;;;;5055752;28;20310;-27
2022/03/23 02:21:52;;;;;;;43.90;29.05;;;;;;;;;;5073983;28;20048;-26
2022/03/23 02:24:21;;;;;;;46.38;29.30;;;;;;;;;;5074212;28;20049;-27
2022/03/23 02:26:47;;;;;;;39.78;27.42;;;;;;;;;;5073984;28;20040;-27
2022/03/23 02:29:14;;;;;;;46.85;29.85;;;;;;;;;;5074114;28;20465;-26
2022/03/23 02:31:40;;;;;;;46.28;29.08;;;;;;;;;;5073987;28;20047;-27
2022/03/23 02:34:06;;;;;;;40.75;26.92;;;;;;;;;;5073891;28;20037;-27
2022/03/23 02:36:32;;;;;;;45.30;29.65;;;;;;;;;;5074041;28;20509;-26
2022/03/23 02:38:58;;;;;;;45.88;28.73;;;;;;;;;;5073676;28;20517;-26
2022/03/23 02:41:24;;;;;;;42.65;28.42;;;;;;;;;;5073806;28;20037;-26
2022/03/23 02:43:50;;;;;;;39.85;27.35;;;;;;;;;;5073343;28;20044;-26
2022/03/23 02:46:17;;;;;;;43.40;27.38;;;;;;;;;;5073802;28;20036;-27
2022/03/23 02:48:44;;;;;;;50.17;30.00;;;;;;;;;;5073827;28;20044;-26
2022/03/23 02:51:10;;;;;;;39.95;26.65;;;;;;;;;;5073446;28;20044;-26
2022/03/23 03:01:59;;;;;;;43.58;27.80;;;;;;;;;;5073529;28;20048;-27
2022/03/23 03:04:25;;;;;;;47.13;29.33;;;;;;;;;;5073674;28;20045;-25
2022/03/23 03:06:51;;;;;;;46.50;28.98;;;;;;;;;;5073520;28;20044;-26
2022/03/23 03:09:19;;;;;;;41.30;27.98;;;;;;;;;;5072252;28;20044;-27
2022/03/23 03:11:47;;;;;;;46.03;29.23;;;;;;;;;;5073568;28;20490;-26
2022/03/23 03:14:13;;;;;;;43.80;27.48;;;;;;;;;;5073392;28;20402;-25
2022/03/23 03:16:39;;;;;;;48.22;28.60;;;;;;;;;;5073107;28;20090;-26
2022/03/23 03:19:11;;;;;;;43.67;28.67;;;;;;;;;;5073483;28;20045;-26
2022/03/23 03:21:37;;;;;;;45.72;29.35;;;;;;;;;;5073359;28;20107;-27
2022/03/23 03:24:03;;;;;;;43.78;28.45;;;;;;;;;;5073234;28;20119;-30
2022/03/23 03:26:32;;;;;;;43.92;26.33;;;;;;;;;;5058564;28;20040;-25
2022/03/23 03:28:59;;;;;;;42.78;26.80;;;;;;;;;;5054217;28;20052;-31
2022/03/23 03:31:25;;;;;;;42.70;29.17;;;;;;;;;;5063787;28;20090;-29
2022/03/23 03:33:51;;;;;;;43.63;29.45;;;;;;;;;;5062156;28;20045;-30
2022/03/23 03:36:17;;;;;;;45.65;29.60;;;;;;;;;;5060237;28;20095;-29
2022/03/23 03:38:44;;;;;;;48.17;30.90;;;;;;;;;;5059506;28;20128;-29
2022/03/23 03:41:10;;;;;;;46.58;28.23;;;;;;;;;;5077048;28;20517;-30
2022/03/23 03:43:37;;;;;;;45.17;29.98;;;;;;;;;;5065530;28;20032;-28
2022/03/23 03:46:06;;;;;;;45.90;29.42;;;;;;;;;;5055360;28;20037;-28
2022/03/23 03:48:32;;;;;;;44.70;28.13;;;;;;;;;;5071482;28;20076;-30
2022/03/23 03:50:59;;;;;;;44.83;28.92;;;;;;;;;;5062954;28;20037;-28
2022/03/23 03:53:25;;;;;;;41.30;26.60;;;;;;;;;;5067258;28;20082;-29
2022/03/23 03:55:51;;;;;;;43.60;28.38;;;;;;;;;;5063767;28;20041;-28
2022/03/23 03:58:17;;;;;;;43.92;28.65;;;;;;;;;;5062980;28;20056;-31
2022/03/23 04:00:44;;;;;;;44.50;27.25;;;;;;;;;;5058858;28;20087;-28
2022/03/23 04:03:12;;;;;;;45.90;29.38;;;;;;;;;;5062768;28;20040;-28
2022/03/23 04:05:38;;;;;;;43.25;27.75;;;;;;;;;;5057087;28;20050;-30
2022/03/23 04:08:05;;;;;;;46.95;28.77;;;;;;;;;;5061851;28;20076;-27
2022/03/23 04:10:32;;;;;;;42.90;28.95;;;;;;;;;;5052142;28;20091;-29
2022/03/23 04:12:58;;;;;;;43.30;28.80;;;;;;;;;;5052895;28;20438;-29
2022/03/23 04:15:25;;;;;;;48.45;30.33;;;;;;;;;;5051262;28;20045;-29
2022/03/23 04:17:52;;;;;;;42.45;28.90;;;;;;;;;;5065294;28;20097;-28
2022/03/23 04:20:18;;;;;;;43.72;28.15;;;;;;;;;;5061383;28;20133;-29
2022/03/23 04:22:45;;;;;;;47.58;29.77;;;;;;;;;;5066442;28;20033;-31
2022/03/23 04:25:12;;;;;;;44.50;29.13;;;;;;;;;;5052933;28;20044;-29
2022/03/23 04:27:45;;;;;;;43.92;28.05;;;;;;;;;;5034041;28;20039;-28
2022/03/23 04:30:12;;;;;;;42.78;28.55;;;;;;;;;;5065333;28;20048;-29
2022/03/23 04:32:38;;;;;;;49.65;30.75;;;;;;;;;;5056846;28;20044;-30
2022/03/23 04:35:05;;;;;;;43.47;28.05;;;;;;;;;;5069287;28;20040;-29
2022/03/23 04:37:31;;;;;;;47.65;30.58;;;;;;;;;;5062867;28;20043;-30
2022/03/23 04:39:57;;;;;;;48.65;30.23;;;;;;;;;;5062869;28;20497;-30
2022/03/23 04:42:23;;;;;;;48.67;31.30;;;;;;;;;;5062185;28;20115;-28
2022/03/23 04:44:49;;;;;;;50.67;31.80;;;;;;;;;;5070427;28;20032;-30
2022/03/23 04:47:15;;;;;;;51.53;32.20;;;;;;;;;;5064303;28;20064;-28
2022/03/23 04:49:42;;;;;;;53.88;32.50;;;;;;;;;;5066957;28;20090;-28
2022/03/23 04:52:08;;;;;;;44.72;29.35;;;;;;;;;;5053379;28;20049;-28
2022/03/23 04:54:34;;;;;;;48.67;31.13;;;;;;;;;;5054571;28;20039;-28
2022/03/23 04:57:00;;;;;;;49.08;31.88;;;;;;;;;;5065116;28;20036;-29
2022/03/23 04:59:27;;;;;;;47.63;31.35;;;;;;;;;;5061729;28;20095;-28
2022/03/23 05:01:53;;;;;;;48.20;31.60;;;;;;;;;;5069877;28;20514;-28
2022/03/23 05:04:19;;;;;;;51.70;31.88;;;;;;;;;;5044512;28;20043;-28
2022/03/23 05:06:45;;;;;;;51.88;33.83;;;;;;;;;;5058716;28;20049;-28
2022/03/23 05:09:12;;;;;;;48.00;32.63;;;;;;;;;;5054508;28;20067;-31
2022/03/23 05:11:38;;;;;;;48.25;31.88;;;;;;;;;;5068709;28;20040;-31
2022/03/23 05:14:04;;;;;;;47.50;30.98;;;;;;;;;;5056784;28;20040;-29
2022/03/23 05:16:30;;;;;;;52.40;33.80;;;;;;;;;;5059209;28;20059;-29
2022/03/23 05:18:56;;;;;;;51.28;30.90;;;;;;;;;;5065442;28;20052;-30
2022/03/23 05:21:22;;;;;;;52.85;33.88;;;;;;;;;;5067537;28;20123;-31
2022/03/23 05:23:48;;;;;;;54.22;33.33;;;;;;;;;;5066952;28;20514;-29
2022/03/23 05:26:14;;;;;;;50.88;34.20;;;;;;;;;;5061793;28;20041;-28
2022/03/23 05:28:40;;;;;;;51.08;34.20;;;;;;;;;;5061614;28;20487;-28
2022/03/23 05:31:06;;;;;;;56.05;34.92;;;;;;;;;;5058354;28;20035;-28
2022/03/23 05:33:33;;;;;;;55.65;33.75;;;;;;;;;;5064446;28;20405;-27
2022/03/23 05:36:00;;;;;;;50.30;33.25;;;;;;;;;;5054281;28;20044;-29
2022/03/23 05:38:26;;;;;;;48.80;31.50;;;;;;;;;;5065972;28;20041;-28
2022/03/23 05:40:52;;;;;;;53.80;34.35;;;;;;;;;;5066095;28;20051;-29
2022/03/23 05:43:19;;;;;;;56.83;36.40;;;;;;;;;;5069988;28;20517;-28
2022/03/23 05:45:45;;;;;;;55.50;35.13;;;;;;;;;;5055848;28;20041;-28
2022/03/23 05:48:11;;;;;;;55.22;37.28;;;;;;;;;;5064939;28;20043;-28
2022/03/23 05:50:38;;;;;;;53.65;33.53;;;;;;;;;;5055484;28;20049;-28
2022/03/23 05:53:04;;;;;;;55.60;35.50;;;;;;;;;;5061724;28;20044;-30
2022/03/23 05:55:31;;;;;;;55.00;36.45;;;;;;;;;;5071019;28;20037;-30
2022/03/23 05:57:57;;;;;;;52.85;34.85;;;;;;;;;;5061277;28;20037;-29
2022/03/23 06:00:23;;;;;;;52.28;35.90;;;;;;;;;;5069139;28;20032;-28
2022/03/23 06:02:49;;;;;;;54.85;35.35;;;;;;;;;;5071309;28;20081;-29
2022/03/23 06:05:15;;;;;;;55.85;35.28;;;;;;;;;;5054086;28;20032;-29
2022/03/23 06:07:41;;;;;;;53.95;34.60;;;;;;;;;;5062809;28;20037;-29
2022/03/23 06:10:07;;;;;;;54.40;34.95;;;;;;;;;;5056169;28;20047;-28
2022/03/23 06:12:33;;;;;;;52.42;34.40;;;;;;;;;;5061308;28;20099;-29
2022/03/23 06:14:59;;;;;;;52.70;34.42;;;;;;;;;;5065989;28;20394;-30
2022/03/23 06:17:26;;;;;;;56.78;36.97;;;;;;;;;;5058455;28;20029;-30
2022/03/23 06:19:52;;;;;;;59.72;39.00;;;;;;;;;;5069448;28;20098;-29
2022/03/23 06:22:18;;;;;;;51.05;34.85;;;;;;;;;;5064226;28;20060;-30
2022/03/23 06:24:44;;;;;;;54.00;35.05;;;;;;;;;;5065502;28;20487;-29
2022/03/23 06:27:10;;;;;;;53.65;34.60;;;;;;;;;;5051516;28;20033;-28
2022/03/23 06:29:37;;;;;;;51.95;35.00;;;;;;;;;;5060386;28;20486;-30
2022/03/23 06:32:03;;;;;;;51.55;35.92;;;;;;;;;;5061794;28;20049;-28
2022/03/23 06:34:29;;;;;;;48.80;32.55;;;;;;;;;;5066158;28;20040;-29
2022/03/23 06:36:55;;;;;;;49.05;34.22;;;;;;;;;;5071624;28;20120;-30
2022/03/23 06:39:21;;;;;;;58.00;35.97;;;;;;;;;;5059106;28;20084;-28
2022/03/23 06:41:47;;;;;;;54.78;36.10;;;;;;;;;;5053472;28;20105;-29
2022/03/23 06:44:14;;;;;;;54.40;34.40;;;;;;;;;;5066633;28;20400;-29
2022/03/23 06:46:40;;;;;;;51.17;34.80;;;;;;;;;;5053350;28;20037;-30
2022/03/23 06:49:06;;;;;;;48.00;32.55;;;;;;;;;;5059809;28;20048;-28
2022/03/23 06:51:33;;;;;;;55.63;35.08;;;;;;;;;;5058307;28;20051;-29
2022/03/23 06:53:59;;;;;;;55.88;36.63;;;;;;;;;;5045958;28;20417;-30
2022/03/23 06:56:25;;;;;;;51.22;35.10;;;;;;;;;;5053018;28;20029;-28
2022/03/23 06:58:51;;;;;;;52.17;35.78;;;;;;;;;;5058703;28;20041;-29
2022/03/23 07:01:17;;;;;;;51.33;34.85;;;;;;;;;;5042663;28;20045;-28
2022/03/23 07:03:43;;;;;;;48.53;33.92;;;;;;;;;;5067478;28;20398;-29
2022/03/23 07:06:09;;;;;;;52.67;36.63;;;;;;;;;;5064122;28;20037;-30
2022/03/23 07:11:20;;;;;;;47.40;33.00;;;;;;;;;;5064030;28;20036;-29
2022/03/23 07:13:46;;;;;;;49.17;33.47;;;;;;;;;;5058138;28;20094;-29
2022/03/23 07:16:12;;;;;;;46.10;33.63;;;;;;;;;;5061257;28;20337;-28
2022/03/23 07:18:38;;;;;;;48.45;32.85;;;;;;;;;;5062978;28;20123;-29
2022/03/23 07:21:04;;;;;;;44.83;30.38;;;;;;;;;;5054192;28;20045;-30
2022/03/23 07:23:31;;;;;;;44.90;30.00;;;;;;;;;;5076780;28;20033;-29
2022/03/23 07:25:57;;;;;;;40.63;29.25;;;;;;;;;;5060649;28;20500;-29
2022/03/23 07:28:23;;;;;;;38.15;29.60;;;;;;;;;;5061836;28;20033;-31
2022/03/23 07:30:50;;;;;;;41.28;28.40;;;;;;;;;;5057893;28;20043;-29
2022/03/23 07:33:16;;;;;;;40.60;28.50;;;;;;;;;;5068176;28;20055;-29
2022/03/23 07:35:42;;;;;;;38.10;27.58;;;;;;;;;;5052361;28;20048;-28
2022/03/23 07:38:08;;;;;;;42.53;29.25;;;;;;;;;;5052192;28;20122;-29
2022/03/23 07:40:36;;;;;;;41.20;27.15;;;;;;;;;;5059888;28;20109;-29
2022/03/23 07:43:02;;;;;;;37.15;27.30;;;;;;;;;;5058660;28;20037;-29
2022/03/23 07:45:28;;;;;;;35.33;26.85;;;;;;;;;;5068944;28;20043;-29
2022/03/23 07:47:54;;;;;;;38.00;27.50;;;;;;;;;;5067630;28;20120;-29
2022/03/23 07:50:20;;;;;;;36.42;26.42;;;;;;;;;;5066519;28;20123;-30
2022/03/23 07:52:46;;;;;;;31.60;26.13;;;;;;;;;;5059956;28;20445;-29
2022/03/23 07:55:12;;;;;;;36.92;26.55;;;;;;;;;;5051800;28;20095;-28
2022/03/23 07:57:38;;;;;;;31.92;23.20;;;;;;;;;;5053794;28;20076;-29
2022/03/23 08:00:05;;;;;;;38.65;25.13;;;;;;;;;;5068894;28;20123;-29
2022/03/23 08:02:31;;;;;;;34.92;23.98;;;;;;;;;;5062291;28;20037;-29
2022/03/23 08:04:59;;;;;;;33.25;25.70;;;;;;;;;;5067485;28;20036;-29
2022/03/23 08:07:25;;;;;;;33.75;24.48;;;;;;;;;;5052190;28;20120;-30
2022/03/23 08:09:51;;;;;;;35.88;23.42;;;;;;;;;;5069047;28;20094;-29
2022/03/23 08:12:17;;;;;;;30.40;23.70;;;;;;;;;;5064621;28;20045;-28
2022/03/23 08:14:44;;;;;;;30.00;23.42;;;;;;;;;;5060404;28;20075;-29
2022/03/23 08:17:10;;;;;;;29.20;23.05;;;;;;;;;;5065332;28;20062;-30
2022/03/23 08:19:37;;;;;;;30.92;22.88;;;;;;;;;;5062809;28;20044;-29
2022/03/23 08:22:03;;;;;;;29.92;23.80;;;;;;;;;;5062599;28;20036;-29
2022/03/23 08:24:29;;;;;;;28.13;22.95;;;;;;;;;;5059570;28;20037;-29
2022/03/23 08:26:55;;;;;;;31.02;21.63;;;;;;;;;;5058745;28;20068;-29
2022/03/23 08:29:21;;;;;;;26.92;22.42;;;;;;;;;;5055712;28;20457;-30
2022/03/23 08:31:47;;;;;;;28.85;22.10;;;;;;;;;;5062828;28;20044;-29
2022/03/23 08:34:13;;;;;;;27.70;23.17;;;;;;;;;;5051202;28;20119;-29
2022/03/23 08:36:40;;;;;;;27.88;23.10;;;;;;;;;;5038188;28;20427;-29
2022/03/23 08:39:06;;;;;;;25.25;21.40;;;;;;;;;;5053786;28;20052;-29
2022/03/23 08:41:32;;;;;;;24.55;20.35;;;;;;;;;;5072212;28;20036;-29
2022/03/23 08:43:58;;;;;;;23.40;20.90;;;;;;;;;;5062650;28;20127;-29
2022/03/23 08:46:25;;;;;;;27.00;21.77;;;;;;;;;;5066233;28;20044;-29
2022/03/23 08:48:52;;;;;;;27.58;22.25;;;;;;;;;;5063952;28;20448;-26
2022/03/23 08:51:19;;;;;;;24.25;21.30;;;;;;;;;;5051377;28;20134;-28
2022/03/23 08:53:45;;;;;;;25.17;21.90;;;;;;;;;;5051495;28;20041;-27
2022/03/23 08:56:12;;;;;;;23.15;20.63;;;;;;;;;;5051318;28;20036;-28
2022/03/23 08:58:39;;;;;;;27.10;21.45;;;;;;;;;;5051123;28;20052;-27
2022/03/23 09:01:05;;;;;;;26.88;20.83;;;;;;;;;;5051508;28;20048;-28
2022/03/23 09:03:32;;;;;;;22.92;20.52;;;;;;;;;;5051456;28;20406;-28
2022/03/23 09:05:59;;;;;;;23.52;20.05;;;;;;;;;;5051153;28;20116;-27
2022/03/23 09:08:25;;;;;;;24.27;21.67;;;;;;;;;;5050769;28;20055;-28
2022/03/23 09:10:51;;;;;;;24.08;20.40;;;;;;;;;;5051419;28;20124;-29
2022/03/23 09:13:18;;;;;;;22.42;20.05;;;;;;;;;;5051266;28;20115;-28
2022/03/23 09:15:44;;;;;;;21.83;19.45;;;;;;;;;;5071697;28;20065;-28
2022/03/23 09:18:10;;;;;;;22.20;19.90;;;;;;;;;;5086182;28;20440;-28
2022/03/23 09:20:37;;;;;;;24.25;19.58;;;;;;;;;;5062461;28;20048;-27
2022/03/23 09:23:03;;;;;;;21.00;18.90;;;;;;;;;;5032938;28;20041;-28
2022/03/23 09:25:29;;;;;;;21.60;19.33;;;;;;;;;;5057606;28;20032;-29
2022/03/23 09:27:56;;;;;;;21.83;19.48;;;;;;;;;;5071191;28;20043;-27
2022/03/23 09:30:22;;;;;;;21.45;19.20;;;;;;;;;;5070607;28;20044;-28
2022/03/23 09:32:48;;;;;;;21.17;19.17;;;;;;;;;;5062836;28;20297;-28
2022/03/23 09:35:15;;;;;;;22.15;19.50;;;;;;;;;;5050989;28;20090;-29
2022/03/23 09:37:47;;;;;;;21.50;19.40;;;;;;;;;;5050738;28;20073;-27
2022/03/23 09:40:16;;;;;;;21.42;19.40;;;;;;;;;;5050968;28;20037;-28
2022/03/23 09:42:43;;;;;;;20.73;18.73;;;;;;;;;;5050915;28;20087;-28
2022/03/23 09:45:11;;;;;;;21.08;19.05;;;;;;;;;;5051397;28;20084;-28
2022/03/23 09:47:38;;;;;;;22.38;20.23;;;;;;;;;;5050842;28;20039;-29
2022/03/23 09:50:04;;;;;;;20.98;18.85;;;;;;;;;;5050837;28;20052;-29
2022/03/23 09:52:30;;;;;;;19.40;17.38;;;;;;;;;;5050706;28;20340;-28
2022/03/23 09:54:56;;;;;;;20.60;18.67;;;;;;;;;;5050963;28;20037;-28
2022/03/23 09:57:22;;;;;;;19.50;17.80;;;;;;;;;;5053149;28;20041;-29
2022/03/23 09:59:48;;;;;;;20.45;18.35;;;;;;;;;;5091007;28;20402;-29
2022/03/23 10:02:33;;;;;;;19.80;18.02;;;;;;;;;;5082794;28;20468;-32
2022/03/23 10:05:18;;;;;;;18.75;16.85;;;;;;;;;;5054929;28;20037;-32
2022/03/23 10:08:02;;;;;;;18.65;16.80;;;;;;;;;;5056823;28;20123;-32
2022/03/23 10:10:47;;;;;;;17.05;15.32;;;;;;;;;;5059190;28;20087;-32
2022/03/23 10:13:22;;;;;;;20.02;18.00;;;;;;;;;;5059462;28;20454;-33
2022/03/23 10:16:07;;;;;;;18.52;16.60;;;;;;;;;;5058963;28;20099;-31
2022/03/23 10:18:52;;;;;;;19.15;17.45;;;;;;;;;;5056967;28;20043;-31
2022/03/23 10:21:19;;;;;;;19.27;17.52;;;;;;;;;;5058903;28;20053;-33
2022/03/23 10:24:00;;;;;;;18.70;16.98;;;;;;;;;;5061887;28;20048;-32
2022/03/23 10:26:36;;;;;;;19.67;17.75;;;;;;;;;;5059565;28;20029;-31
2022/03/23 10:29:02;;;;;;;18.65;16.95;;;;;;;;;;5056709;28;20163;-32
2022/03/23 10:31:29;;;;;;;18.33;16.73;;;;;;;;;;5055125;28;20052;-34
2022/03/23 10:34:08;;;;;;;19.25;17.45;;;;;;;;;;5053111;28;20041;-33
2022/03/23 10:36:57;;;;;;;17.55;15.93;;;;;;;;;;5055638;28;20064;-32
2022/03/23 10:39:31;;;;;;;17.48;15.88;;;;;;;;;;5068553;28;20109;-33
2022/03/23 10:42:05;;;;;;;18.42;16.55;;;;;;;;;;5064879;28;20127;-33
2022/03/23 10:44:31;;;;;;;19.00;17.20;;;;;;;;;;5057954;28;20048;-34
2022/03/23 10:46:58;;;;;;;18.90;17.08;;;;;;;;;;5064973;28;20086;-33
2022/03/23 10:49:39;;;;;;;18.90;17.20;;;;;;;;;;5057314;28;20106;-34
2022/03/23 10:52:13;;;;;;;16.88;15.20;;;;;;;;;;5064139;28;20129;-34
2022/03/23 10:54:40;;;;;;;16.50;15.00;;;;;;;;;;5053497;28;20083;-33
2022/03/23 10:57:06;;;;;;;16.17;14.68;;;;;;;;;;5053339;28;20045;-32
2022/03/23 10:59:33;;;;;;;16.17;14.68;;;;;;;;;;5054108;28;20103;-33
2022/03/23 11:02:03;;;;;;;16.85;15.32;;;;;;;;;;5051956;28;20120;-32
2022/03/23 11:04:45;;;;;;;16.98;15.27;;;;;;;;;;5061032;28;20036;-34
2022/03/23 11:07:38;;;;;;;17.52;15.88;;;;;;;;;;5062600;28;20041;-33
2022/03/23 11:15:48;;;;;;;17.30;15.57;;;;;;;;;;5051647;28;20103;-33
2022/03/23 11:18:16;;;;;;;16.73;15.15;;;;;;;;;;5058961;28;20072;-31
2022/03/23 11:20:50;;;;;;;16.55;15.05;;;;;;;;;;5065728;28;20441;-32
2022/03/23 11:23:18;;;;;;;17.15;15.43;;;;;;;;;;5063613;28;20044;-32
2022/03/23 11:25:45;;;;;;;18.10;15.32;;;;;;;;;;5062663;28;20036;-32
2022/03/23 11:28:13;;;;;;;16.80;15.32;;;;;;;;;;5053246;28;20068;-33
2022/03/23 11:30:39;;;;;;;17.75;15.93;;;;;;;;;;5051655;28;20071;-32
2022/03/23 11:33:09;;;;;;;15.93;14.50;;;;;;;;;;5056403;28;20040;-32
2022/03/23 11:35:37;;;;;;;17.95;16.30;;;;;;;;;;5053221;28;20457;-33
2022/03/23 11:38:05;;;;;;;16.63;15.02;;;;;;;;;;5050892;28;20037;-33
2022/03/23 11:40:31;;;;;;;18.75;16.95;;;;;;;;;;5052609;28;20049;-34
2022/03/23 11:42:58;;;;;;;17.92;16.23;;;;;;;;;;5064393;28;20068;-33
2022/03/23 11:45:24;;;;;;;17.30;15.55;;;;;;;;;;5060009;28;20103;-33
2022/03/23 11:48:01;;;;;;;17.33;15.77;;;;;;;;;;5060081;28;20116;-33
2022/03/23 11:50:30;;;;;;;16.85;15.15;;;;;;;;;;5058816;28;20539;-33
2022/03/23 11:53:03;;;;;;;18.10;16.35;;;;;;;;;;5054968;28;20094;-34
2022/03/23 11:55:42;;;;;;;20.20;15.23;;;;;;;;;;5071274;28;20099;-32
2022/03/23 11:58:16;;;;;;;16.02;14.63;;;;;;;;;;5063843;28;20132;-33
2022/03/23 12:00:47;;;;;;;15.27;13.77;;;;;;;;;;5066131;28;20119;-33
2022/03/23 12:03:13;;;;;;;14.68;13.38;;;;;;;;;;5055308;28;20537;-33
2022/03/23 12:05:51;;;;;;;14.95;13.45;;;;;;;;;;5051273;28;20049;-34
2022/03/23 12:08:35;;;;;;;13.82;12.10;;;;;;;;;;5054572;28;20406;-32
2022/03/23 12:11:05;;;;;;;14.18;12.70;;;;;;;;;;5059532;28;20183;-32
2022/03/23 12:13:51;;;;;;;13.52;12.18;;;;;;;;;;5068357;28;20402;-33
2022/03/23 12:16:17;;;;;;;13.70;12.05;;;;;;;;;;5057288;28;20039;-33
2022/03/23 12:19:02;;;;;;;16.90;13.57;;;;;;;;;;5054647;28;20048;-36
2022/03/23 12:21:30;;;;;;;15.60;12.18;;;;;;;;;;5052358;28;20082;-34
2022/03/23 12:24:03;;;;;;;14.00;11.70;;;;;;;;;;5059916;28;20089;-32
2022/03/23 12:26:33;;;;;;;13.00;11.38;;;;;;;;;;5066840;28;20048;-34
2022/03/23 12:29:19;;;;;;;13.80;12.25;;;;;;;;;;5053229;28;20049;-35
2022/03/23 12:31:45;;;;;;;13.65;12.38;;;;;;;;;;5049839;28;20055;-33
2022/03/23 12:34:26;;;;;;;12.63;11.48;;;;;;;;;;5039618;28;20045;-34
2022/03/23 12:36:57;;;;;;;11.50;10.27;;;;;;;;;;5060763;28;20033;-32
2022/03/23 12:39:32;;;;;;;14.98;10.88;;;;;;;;;;5040611;28;20040;-33
2022/03/23 12:42:00;;;;;;;14.63;11.57;;;;;;;;;;5050745;28;20045;-33
2022/03/23 12:44:28;;;;;;;16.25;12.35;;;;;;;;;;5057693;28;20422;-33
2022/03/23 12:46:54;;;;;;;13.68;11.45;;;;;;;;;;5065087;28;20045;-33
2022/03/23 12:57:53;;;;;;;13.65;12.23;;;;;;;;;;5060678;28;20048;-33
2022/03/23 13:00:26;;;;;;;16.73;12.18;;;;;;;;;;5058066;28;20049;-32
2022/03/23 13:03:07;;;;;;;13.30;11.90;;;;;;;;;;5057857;28;20040;-33
2022/03/23 13:05:34;;;;;;;14.57;11.75;;;;;;;;;;5051001;28;20405;-32
2022/03/23 13:08:00;;;;;;;13.15;11.60;;;;;;;;;;5057916;28;20068;-34
2022/03/23 13:10:26;;;;;;;13.32;11.57;;;;;;;;;;5034057;28;20517;-33
2022/03/23 13:13:08;;;;;;;17.40;12.52;;;;;;;;;;5066979;28;20051;-32
2022/03/23 13:15:35;;;;;;;13.93;12.20;;;;;;;;;;5061188;28;20479;-33
2022/03/23 13:18:01;;;;;;;12.77;10.95;;;;;;;;;;5050509;28;20560;-33
2022/03/23 13:20:31;;;;;;;15.70;11.18;;;;;;;;;;5051710;28;20037;-32
2022/03/23 13:22:57;;;;;;;15.68;9.82;;;;;;;;;;5060665;28;20033;-32
2022/03/23 13:25:23;;;;;;;13.25;10.15;;;;;;;;;;5054259;28;20043;-33
2022/03/23 13:27:51;;;;;;;13.57;11.38;;;;;;;;;;5059157;28;20075;-33
2022/03/23 13:30:23;;;;;;;12.75;11.27;;;;;;;;;;5065759;28;20101;-33
2022/03/23 13:32:50;;;;;;;12.57;11.27;;;;;;;;;;5064865;28;20044;-35
2022/03/23 13:35:17;;;;;;;14.90;10.60;;;;;;;;;;5065689;28;20124;-32
2022/03/23 13:37:57;;;;;;;15.98;10.50;;;;;;;;;;5065476;28;20048;-32
2022/03/23 13:40:27;;;;;;;15.57;10.35;;;;;;;;;;5058961;28;20140;-32
2022/03/23 13:45:41;;;;;;;13.95;10.57;;;;;;;;;;5069163;28;20464;-35
2022/03/23 13:48:10;;;;;;;14.20;11.50;;;;;;;;;;5061793;28;20033;-33
2022/03/23 13:50:43;;;;;;;13.50;10.55;;;;;;;;;;5063771;28;20116;-32
2022/03/23 13:53:09;;;;;;;12.05;10.68;;;;;;;;;;5068389;28;20052;-36
2022/03/23 13:55:35;;;;;;;14.20;11.45;;;;;;;;;;5068436;28;20043;-35
2022/03/23 13:58:01;;;;;;;15.45;10.65;;;;;;;;;;5061383;28;20408;-34
2022/03/23 14:00:28;;;;;;;12.27;10.82;;;;;;;;;;5069084;28;20041;-36
2022/03/23 14:02:54;;;;;;;12.00;10.02;;;;;;;;;;5062998;28;20482;-32
2022/03/23 14:05:21;;;;;;;13.75;9.63;;;;;;;;;;5057418;28;20518;-32
2022/03/23 14:07:49;;;;;;;17.48;10.02;;;;;;;;;;5053888;28;20098;-33
2022/03/23 14:10:15;;;;;;;11.65;8.45;;;;;;;;;;5063355;28;20041;-32
2022/03/23 14:12:41;;;;;;;17.17;9.48;;;;;;;;;;5069904;28;20121;-32
2022/03/23 14:15:07;;;;;;;13.98;9.68;;;;;;;;;;5058834;28;20463;-33
2022/03/23 14:17:37;;;;;;;12.18;8.90;;;;;;;;;;5054859;28;20124;-33
2022/03/23 14:20:05;;;;;;;17.45;8.70;;;;;;;;;;5066096;28;20043;-32
2022/03/23 14:22:32;;;;;;;13.52;8.32;;;;;;;;;;5063300;28;20041;-32
2022/03/23 14:24:58;;;;;;;10.30;8.23;;;;;;;;;;5065834;28;20076;-32
2022/03/23 14:27:24;;;;;;;11.63;8.88;;;;;;;;;;5064718;28;20040;-33
2022/03/23 14:29:57;;;;;;;15.02;8.60;;;;;;;;;;5061069;28;20498;-33
2022/03/23 14:32:29;;;;;;;13.20;8.13;;;;;;;;;;5055051;28;20044;-31
2022/03/23 14:34:56;;;;;;;12.95;7.07;;;;;;;;;;5058137;28;20032;-32
2022/03/23 14:37:32;;;;;;;13.13;7.82;;;;;;;;;;5065187;28;20422;-34
2022/03/23 14:40:00;;;;;;;15.63;6.97;;;;;;;;;;5058691;28;20041;-31
2022/03/23 14:42:32;;;;;;;11.52;6.28;;;;;;;;;;5065844;28;20529;-32
2022/03/23 14:45:02;;;;;;;15.23;7.40;;;;;;;;;;5055962;28;20497;-34
2022/03/23 14:47:47;;;;;;;14.07;8.30;;;;;;;;;;5071248;28;20036;-33
2022/03/23 14:50:13;;;;;;;11.27;8.63;;;;;;;;;;5073074;28;20437;-35
2022/03/23 14:52:39;;;;;;;17.63;9.20;;;;;;;;;;5058514;28;20090;-33